Terminal Aerodrome Forecast
Issued by NWS Goodland, KS

Home | Current Version | Previous Version | Text Only | Print | Product List | Glossary Off
Versions: 1 2 3 4 5 6 7 8 9 10 11 12 13 14

000
FTUS43 KGLD 211120
TAFGLD
TAF
KGLD 211120Z 2112/2212 01011KT P6SM VCSH BKN003 OVC020
     FM211500 02013KT 3SM -FZRA BKN003 OVC015
     FM211800 01015G25KT 3SM FZRA BKN003
     FM211900 01020G30KT 2SM -SN BLSN BKN003 OVC015
     FM220100 35025G35KT 1/2SM -SN BLSN BKN008 OVC010
     FM220900 33030G40KT 1SM BLSN SCT020 BKN030=

USA.gov is the U.S. government's official web portal to all federal, state and local government web resources and services.